Time;durP1;ratioP1;P1;durP2;ratioP2;P2;SDS_P1;SDS_P2;PMS_P1;PMS_P2;Temp;Humidity;BMP_temperature;BMP_pressure;BME280_temperature;BME280_humidity;BME280_pressure;Samples;Min_cycle;Max_cycle;Signal;HPM_P1;HPM_P2
2022/08/26 00:02:39;;;;;;;3.10;1.38;;;21.30;99.90;;;;;;10292702;28;20112;-63
2022/08/26 00:07:42;;;;;;;3.08;1.63;;;21.20;99.90;;;;;;10299806;28;20047;-60
2022/08/26 00:12:44;;;;;;;5.20;1.33;;;21.10;99.90;;;;;;10290268;28;20394;-60
2022/08/26 00:17:47;;;;;;;2.05;0.93;;;21.20;99.90;;;;;;10287878;28;20053;-60
2022/08/26 00:22:49;;;;;;;3.00;1.10;;;21.10;99.90;;;;;;10289004;28;20051;-59
2022/08/26 00:27:51;;;;;;;3.95;1.40;;;21.10;99.90;;;;;;10292672;28;20061;-60
2022/08/26 00:32:54;;;;;;;4.55;1.20;;;21.10;99.90;;;;;;10301582;28;20054;-60
2022/08/26 00:37:57;;;;;;;1.95;1.35;;;21.10;99.90;;;;;;10293153;28;20393;-60
2022/08/26 00:42:59;;;;;;;4.10;1.27;;;21.00;99.90;;;;;;10291165;28;20113;-63
2022/08/26 00:48:03;;;;;;;4.85;1.13;;;21.10;99.90;;;;;;10292750;28;20061;-63
2022/08/26 00:53:20;;;;;;;5.18;1.25;;;21.00;99.90;;;;;;10292962;28;20178;-61
2022/08/26 00:58:31;;;;;;;6.13;1.60;;;21.00;99.90;;;;;;10291443;28;20049;-61
2022/08/26 01:03:33;;;;;;;2.63;1.80;;;21.00;99.90;;;;;;10292772;28;20054;-61
2022/08/26 01:08:35;;;;;;;3.63;1.48;;;20.90;99.90;;;;;;10424759;23;20056;-85
2022/08/26 01:13:38;;;;;;;2.03;1.02;;;20.80;99.90;;;;;;10428926;28;20044;-85
2022/08/26 01:18:42;;;;;;;6.28;1.13;;;20.60;99.90;;;;;;10455689;28;20048;-85
2022/08/26 01:23:47;;;;;;;2.05;1.30;;;20.60;99.90;;;;;;10426447;28;20040;-84
2022/08/26 01:28:52;;;;;;;2.85;1.42;;;20.60;99.90;;;;;;10455395;28;20057;-84
2022/08/26 01:34:04;;;;;;;2.10;1.23;;;20.60;99.90;;;;;;10450258;28;20053;-84
2022/08/26 01:39:07;;;;;;;2.28;1.40;;;20.60;99.90;;;;;;10448191;28;20052;-84
2022/08/26 01:44:17;;;;;;;1.95;1.08;;;20.60;99.90;;;;;;10442470;28;20048;-84
2022/08/26 01:49:20;;;;;;;4.05;1.40;;;20.60;99.90;;;;;;10438797;28;20402;-84
2022/08/26 01:54:24;;;;;;;5.53;1.38;;;20.50;99.90;;;;;;10463157;28;20109;-84
2022/08/26 01:59:29;;;;;;;1.95;1.20;;;20.40;99.90;;;;;;10481703;28;20049;-84
2022/08/26 02:04:40;;;;;;;7.30;1.65;;;20.40;99.90;;;;;;10483088;28;20044;-84
2022/08/26 02:09:43;;;;;;;3.75;1.38;;;20.30;99.90;;;;;;10501585;28;20104;-84
2022/08/26 02:14:50;;;;;;;2.85;1.45;;;20.20;99.90;;;;;;10478329;28;20048;-84
2022/08/26 02:19:52;;;;;;;5.35;1.42;;;20.20;99.90;;;;;;10495427;28;20508;-84
2022/08/26 02:25:15;;;;;;;3.95;2.13;;;20.10;99.90;;;;;;10493094;28;20044;-84
2022/08/26 02:30:20;;;;;;;3.38;1.63;;;20.10;99.90;;;;;;10476644;28;20522;-84
2022/08/26 02:35:23;;;;;;;5.05;1.70;;;20.10;99.90;;;;;;10481996;28;20040;-84
2022/08/26 02:40:31;;;;;;;3.03;1.58;;;20.10;99.90;;;;;;10499482;28;20134;-85
2022/08/26 02:45:33;;;;;;;7.50;1.30;;;20.10;99.90;;;;;;10466006;28;20055;-84
2022/08/26 02:50:36;;;;;;;8.15;1.70;;;20.00;99.90;;;;;;10486467;28;20139;-85
2022/08/26 02:55:40;;;;;;;4.30;2.05;;;19.90;99.90;;;;;;10488846;28;20599;-86
2022/08/26 03:00:42;;;;;;;3.70;1.40;;;19.90;99.90;;;;;;10505256;28;20107;-86
2022/08/26 03:05:54;;;;;;;7.72;1.90;;;19.90;99.90;;;;;;10490687;28;20056;-84
2022/08/26 03:10:56;;;;;;;5.07;1.65;;;19.80;99.90;;;;;;10487901;28;20048;-84
2022/08/26 03:16:00;;;;;;;4.50;1.77;;;19.80;99.90;;;;;;10500172;28;20053;-84
2022/08/26 03:21:07;;;;;;;5.00;1.95;;;19.80;99.90;;;;;;10497829;28;20289;-84
2022/08/26 03:26:11;;;;;;;5.57;1.98;;;19.70;99.90;;;;;;10486652;28;20058;-84
2022/08/26 03:31:13;;;;;;;2.20;1.60;;;19.60;99.90;;;;;;10497296;28;20044;-85
2022/08/26 03:36:15;;;;;;;5.40;1.88;;;19.60;99.90;;;;;;10504818;28;20052;-85
2022/08/26 03:41:17;;;;;;;2.95;1.55;;;19.60;99.90;;;;;;10496772;28;20051;-85
2022/08/26 03:46:19;;;;;;;5.18;1.70;;;19.50;99.90;;;;;;10482444;28;20482;-85
2022/08/26 03:51:21;;;;;;;4.95;2.35;;;19.50;99.90;;;;;;10477309;28;20394;-84
2022/08/26 03:56:26;;;;;;;5.63;1.33;;;19.50;99.90;;;;;;10483204;28;20044;-84
2022/08/26 04:01:28;;;;;;;3.75;1.75;;;19.50;99.90;;;;;;10494538;28;20044;-86
2022/08/26 04:06:37;;;;;;;4.47;2.22;;;19.40;99.90;;;;;;10495247;28;20052;-86
2022/08/26 04:11:42;;;;;;;4.13;1.98;;;19.50;99.90;;;;;;10493895;28;20128;-87
2022/08/26 04:16:45;;;;;;;4.78;2.28;;;19.50;99.90;;;;;;10452385;28;20044;-85
2022/08/26 04:21:51;;;;;;;6.70;2.47;;;19.50;99.90;;;;;;10506002;28;20080;-81
2022/08/26 04:26:55;;;;;;;5.30;2.63;;;19.60;99.90;;;;;;10478987;28;20498;-83
2022/08/26 04:31:57;;;;;;;6.30;2.45;;;19.60;99.90;;;;;;10483832;28;20049;-83
2022/08/26 04:36:59;;;;;;;10.45;2.78;;;19.70;99.90;;;;;;10481419;28;20053;-82
2022/08/26 04:42:01;;;;;;;3.92;2.22;;;19.70;99.90;;;;;;10491464;28;20541;-81
2022/08/26 04:47:04;;;;;;;10.80;2.30;;;19.70;99.90;;;;;;10480876;28;20067;-81
2022/08/26 04:52:06;;;;;;;5.45;1.90;;;19.80;99.90;;;;;;10481248;28;20405;-84
2022/08/26 04:57:08;;;;;;;6.18;2.50;;;19.70;99.90;;;;;;10468521;28;20052;-84
2022/08/26 05:02:10;;;;;;;5.35;2.00;;;19.80;99.90;;;;;;10503363;28;20039;-83
2022/08/26 05:07:12;;;;;;;4.88;2.17;;;19.70;99.90;;;;;;10485850;28;20094;-84
2022/08/26 05:12:18;;;;;;;11.67;2.73;;;19.70;99.90;;;;;;10480016;28;20078;-84
2022/08/26 05:17:20;;;;;;;9.50;2.85;;;19.70;99.90;;;;;;10497326;28;20040;-84
2022/08/26 05:22:22;;;;;;;4.35;2.30;;;19.70;99.90;;;;;;10501015;28;20075;-83
2022/08/26 05:27:24;;;;;;;7.55;2.58;;;19.70;99.90;;;;;;10486989;28;20048;-82
2022/08/26 05:32:26;;;;;;;4.50;2.30;;;19.60;99.90;;;;;;10481557;28;20058;-82
2022/08/26 05:37:29;;;;;;;5.13;2.47;;;19.70;99.90;;;;;;10488761;28;20046;-82
2022/08/26 05:42:32;;;;;;;4.20;2.47;;;19.70;99.90;;;;;;10465954;28;20049;-82
2022/08/26 05:47:34;;;;;;;5.78;2.75;;;19.70;99.90;;;;;;10497128;28;20048;-82
2022/08/26 05:52:37;;;;;;;5.53;2.70;;;19.70;99.90;;;;;;10479470;28;20052;-83
2022/08/26 05:57:38;;;;;;;9.73;2.60;;;19.70;99.90;;;;;;10500729;28;20063;-81
2022/08/26 06:02:43;;;;;;;12.93;2.95;;;19.80;99.90;;;;;;10510075;28;20044;-85
2022/08/26 06:13:11;;;;;;;6.45;2.95;;;19.90;99.90;;;;;;10494728;28;20053;-84
2022/08/26 06:18:16;;;;;;;2.97;2.33;;;20.00;99.90;;;;;;10466769;28;20044;-82
2022/08/26 06:28:42;;;;;;;4.25;2.47;;;20.20;99.90;;;;;;10499253;28;20555;-82
2022/08/26 06:33:46;;;;;;;7.53;3.15;;;20.30;99.90;;;;;;10502331;28;20072;-83
2022/08/26 06:38:50;;;;;;;4.63;2.40;;;20.40;99.90;;;;;;10489091;28;20069;-82
2022/08/26 06:43:52;;;;;;;5.38;2.72;;;20.40;99.90;;;;;;10477099;28;20503;-83
2022/08/26 06:48:57;;;;;;;8.57;2.97;;;20.50;99.90;;;;;;10507968;28;20055;-83
2022/08/26 06:53:59;;;;;;;3.58;2.72;;;20.60;99.90;;;;;;10485331;28;20135;-82
2022/08/26 06:59:03;;;;;;;5.85;2.83;;;20.70;99.90;;;;;;10501017;28;20136;-87
2022/08/26 07:04:08;;;;;;;;;;;20.80;99.90;;;;;;10475803;28;20046;-87
2022/08/26 07:09:11;;;;;;;8.18;2.63;;;20.90;99.90;;;;;;10490664;28;20286;-85
2022/08/26 07:14:15;;;;;;;4.85;2.47;;;21.00;99.90;;;;;;10480034;28;20472;-87
2022/08/26 07:19:21;;;;;;;5.25;2.40;;;21.10;99.90;;;;;;10469957;28;20045;-84
2022/08/26 07:24:35;;;;;;;4.40;2.15;;;21.20;99.90;;;;;;10472070;28;20045;-85
2022/08/26 07:29:38;;;;;;;7.03;2.95;;;21.40;99.90;;;;;;10442597;28;20529;-85
2022/08/26 07:34:41;;;;;;;4.80;2.22;;;21.60;99.90;;;;;;10480971;28;20079;-84
2022/08/26 07:39:43;;;;;;;6.00;2.42;;;21.90;99.90;;;;;;10458243;28;20770;-85
2022/08/26 07:44:46;;;;;;;5.03;2.67;;;22.20;99.90;;;;;;10503108;28;20122;-85
2022/08/26 07:49:48;;;;;;;11.77;2.40;;;22.70;99.90;;;;;;10476463;28;20045;-86
2022/08/26 07:54:56;;;;;;;10.53;2.70;;;23.20;99.90;;;;;;10498432;28;20078;-86
2022/08/26 07:59:59;;;;;;;5.43;2.27;;;23.70;99.90;;;;;;10484580;28;20041;-86
2022/08/26 08:05:01;;;;;;;7.63;2.47;;;24.20;99.90;;;;;;10488748;28;20049;-87
2022/08/26 08:10:04;;;;;;;4.03;2.03;;;24.60;99.90;;;;;;10492586;28;20052;-85
2022/08/26 08:15:14;;;;;;;4.97;2.05;;;25.00;99.90;;;;;;10508383;28;20052;-85
2022/08/26 08:20:16;;;;;;;6.93;2.65;;;25.40;99.90;;;;;;10488394;28;20044;-86
2022/08/26 08:25:19;;;;;;;4.53;2.67;;;25.70;99.90;;;;;;10486859;28;20513;-86
2022/08/26 08:30:21;;;;;;;4.85;2.67;;;25.90;99.90;;;;;;10495131;28;20413;-86
2022/08/26 08:35:25;;;;;;;5.75;2.33;;;26.10;99.90;;;;;;10483792;28;20040;-86
2022/08/26 08:40:27;;;;;;;7.60;2.58;;;26.40;99.90;;;;;;10491019;28;20052;-86
2022/08/26 08:45:39;;;;;;;6.20;2.55;;;26.60;99.90;;;;;;10480016;28;20504;-87
2022/08/26 08:50:48;;;;;;;4.53;2.45;;;26.90;99.90;;;;;;10507099;28;20050;-87
2022/08/26 08:56:30;;;;;;;6.95;2.35;;;27.10;99.90;;;;;;10484549;28;20052;-85
2022/08/26 09:01:47;;;;;;;4.80;2.50;;;27.30;99.50;;;;;;10496497;28;20044;-87
2022/08/26 09:06:58;;;;;;;4.57;2.20;;;27.50;98.80;;;;;;10494862;28;20071;-86
2022/08/26 09:12:01;;;;;;;5.97;2.83;;;27.70;98.20;;;;;;10488476;28;20052;-86
2022/08/26 09:17:37;;;;;;;5.50;2.17;;;27.80;97.90;;;;;;10462220;28;20131;-87
2022/08/26 09:22:39;;;;;;;10.27;3.00;;;27.90;97.50;;;;;;10397468;28;20049;-86
2022/08/26 09:27:50;;;;;;;2.80;2.13;;;28.00;97.10;;;;;;10476858;28;20052;-86
2022/08/26 09:33:07;;;;;;;5.78;2.35;;;28.20;96.70;;;;;;10467108;28;20106;-86
2022/08/26 09:38:35;;;;;;;5.45;2.40;;;28.40;96.30;;;;;;10480885;28;20044;-84
2022/08/26 09:43:36;;;;;;;4.40;2.33;;;28.40;96.40;;;;;;10466737;28;20046;-85
2022/08/26 09:48:41;;;;;;;7.13;2.53;;;28.50;96.30;;;;;;10475912;28;20383;-85
2022/08/26 09:53:52;;;;;;;4.45;2.35;;;28.50;96.40;;;;;;10505191;28;20051;-84
2022/08/26 09:58:56;;;;;;;5.28;2.85;;;28.50;96.30;;;;;;10480989;28;20048;-87
2022/08/26 10:04:09;;;;;;;9.95;2.60;;;28.50;96.10;;;;;;10459020;28;20127;-85
2022/08/26 10:09:16;;;;;;;7.47;2.70;;;28.40;96.00;;;;;;10482824;28;20059;-82
2022/08/26 10:14:28;;;;;;;7.15;2.20;;;28.40;96.10;;;;;;10472709;28;20049;-86
2022/08/26 10:19:39;;;;;;;8.73;2.85;;;28.60;96.10;;;;;;10467891;28;20048;-87
2022/08/26 10:25:02;;;;;;;9.57;2.97;;;28.80;96.30;;;;;;10481113;28;20049;-88
2022/08/26 10:30:09;;;;;;;4.72;2.85;;;29.50;95.40;;;;;;10447605;28;20048;-89
2022/08/26 10:35:13;;;;;;;7.20;2.53;;;29.80;95.20;;;;;;10472317;28;20404;-88
2022/08/26 10:40:28;;;;;;;3.60;2.58;;;30.10;94.20;;;;;;10457940;28;20103;-88
2022/08/26 10:45:40;;;;;;;6.47;2.33;;;30.40;93.30;;;;;;10485426;28;20049;-89
2022/08/26 10:50:45;;;;;;;6.03;3.05;;;30.50;93.50;;;;;;10483812;28;20044;-89
2022/08/26 10:55:55;;;;;;;4.88;2.60;;;31.00;92.60;;;;;;10497870;28;20040;-88
2022/08/26 11:06:34;;;;;;;10.68;2.25;;;31.50;92.00;;;;;;10468235;28;20108;-88
2022/08/26 11:11:40;;;;;;;4.60;2.90;;;31.30;90.80;;;;;;10503699;28;20100;-85
2022/08/26 11:16:44;;;;;;;;;;;31.40;91.00;;;;;;10490487;28;20036;-85
2022/08/26 11:22:20;;;;;;;8.98;3.30;;;31.40;90.40;;;;;;10480158;28;19932;-85
2022/08/26 11:27:22;;;;;;;6.18;3.17;;;31.60;90.10;;;;;;10492175;28;20052;-86
2022/08/26 11:32:48;;;;;;;4.35;2.88;;;31.70;89.80;;;;;;10485945;28;20486;-86
2022/08/26 11:37:56;;;;;;;7.07;3.08;;;32.00;88.40;;;;;;10478441;28;20098;-88
2022/08/26 11:43:07;;;;;;;4.88;3.45;;;31.70;89.20;;;;;;10507655;28;20100;-85
2022/08/26 11:48:17;;;;;;;8.40;2.67;;;31.20;89.20;;;;;;10505264;28;20139;-88
2022/08/26 11:53:22;;;;;;;3.75;2.58;;;31.30;89.70;;;;;;10496831;28;20460;-85
2022/08/26 11:58:27;;;;;;;4.53;2.85;;;31.30;88.50;;;;;;10503784;28;20123;-85
2022/08/26 12:03:45;;;;;;;7.38;2.85;;;30.80;88.70;;;;;;10488642;28;20020;-87
2022/08/26 12:08:48;;;;;;;4.90;2.90;;;30.70;88.40;;;;;;10451008;28;20059;-88
2022/08/26 12:14:03;;;;;;;16.20;3.80;;;30.70;89.00;;;;;;10478238;28;20052;-88
2022/08/26 12:19:40;;;;;;;6.78;3.78;;;30.70;88.80;;;;;;10465018;28;20131;-87
2022/08/26 12:24:54;;;;;;;10.20;3.28;;;30.50;88.30;;;;;;10426687;28;20055;-87
2022/08/26 12:30:11;;;;;;;4.53;3.58;;;30.70;89.70;;;;;;10488002;28;20563;-87
2022/08/26 12:35:17;;;;;;;9.40;3.17;;;30.40;90.40;;;;;;10471184;28;20055;-87
2022/08/26 12:40:38;;;;;;;8.70;3.72;;;30.50;88.80;;;;;;10485964;28;20139;-87
2022/08/26 12:45:59;;;;;;;5.07;3.72;;;30.60;90.50;;;;;;10498615;28;20079;-88
2022/08/26 12:51:01;;;;;;;8.10;4.03;;;30.30;88.40;;;;;;10485846;28;20102;-87
2022/08/26 12:56:44;;;;;;;11.48;3.97;;;30.20;88.40;;;;;;10496757;28;20120;-88
2022/08/26 13:01:48;;;;;;;9.27;3.28;;;30.70;88.20;;;;;;10502760;28;20066;-88
2022/08/26 13:07:23;;;;;;;5.68;3.08;;;30.80;87.40;;;;;;10465768;28;20068;-89
2022/08/26 13:12:28;;;;;;;10.48;3.35;;;30.70;89.10;;;;;;10480204;28;20540;-88
2022/08/26 13:17:30;;;;;;;7.20;3.45;;;30.60;90.10;;;;;;10465679;28;20055;-88
2022/08/26 13:22:33;;;;;;;5.90;4.25;;;30.70;90.80;;;;;;10462563;28;20048;-88
2022/08/26 13:27:38;;;;;;;5.40;3.97;;;30.70;92.40;;;;;;10482180;28;20063;-88
2022/08/26 13:32:40;;;;;;;5.78;3.85;;;30.70;93.00;;;;;;10460698;28;20068;-88
2022/08/26 13:37:44;;;;;;;3.40;3.07;;;30.80;91.70;;;;;;10489751;28;20048;-87
2022/08/26 13:42:48;;;;;;;8.32;3.88;;;31.00;91.00;;;;;;10478099;28;20386;-88
2022/08/26 13:47:50;;;;;;;10.07;4.28;;;31.00;90.80;;;;;;10466356;28;20058;-88
2022/08/26 13:52:52;;;;;;;8.65;5.18;;;30.60;91.80;;;;;;10437514;28;20076;-88
2022/08/26 13:57:58;;;;;;;8.77;5.47;;;29.70;92.10;;;;;;10502893;28;20086;-86
2022/08/26 14:02:59;;;;;;;;;;;29.50;92.50;;;;;;10516075;28;20122;-86
2022/08/26 14:08:02;;;;;;;7.80;4.95;;;29.20;92.40;;;;;;10477835;28;19971;-88
2022/08/26 14:13:04;;;;;;;11.23;4.65;;;28.80;92.40;;;;;;10513740;28;20056;-87
2022/08/26 14:18:10;;;;;;;5.78;3.70;;;28.60;92.70;;;;;;10495362;28;20552;-87
2022/08/26 14:23:12;;;;;;;7.85;3.92;;;28.20;91.80;;;;;;10453084;28;20067;-87
2022/08/26 14:28:15;;;;;;;11.05;5.80;;;27.90;92.20;;;;;;10480807;28;20048;-88
2022/08/26 14:33:22;;;;;;;7.30;5.05;;;27.70;93.10;;;;;;10449299;28;20127;-88
2022/08/26 14:38:24;;;;;;;8.15;4.43;;;27.60;93.20;;;;;;10477806;28;20036;-87
2022/08/26 14:43:26;;;;;;;4.72;3.15;;;27.60;92.30;;;;;;10481165;28;20063;-86
2022/08/26 14:48:28;;;;;;;7.53;3.25;;;27.60;91.00;;;;;;10482710;28;20123;-86
2022/08/26 14:58:51;;;;;;;8.05;3.85;;;27.70;92.90;;;;;;10508291;28;20044;-87
2022/08/26 15:03:52;;;;;;;10.52;4.55;;;27.60;93.00;;;;;;10494547;28;20099;-87
2022/08/26 15:08:54;;;;;;;14.35;6.00;;;27.60;92.70;;;;;;10479657;28;20087;-86
2022/08/26 15:13:56;;;;;;;12.23;7.13;;;27.60;93.70;;;;;;10470380;28;20052;-85
2022/08/26 15:18:58;;;;;;;12.70;6.55;;;27.60;93.50;;;;;;10481879;28;20078;-85
2022/08/26 15:24:01;;;;;;;7.97;5.88;;;27.70;94.60;;;;;;10495302;28;20070;-86
2022/08/26 15:29:03;;;;;;;13.57;6.43;;;27.60;95.20;;;;;;10514352;28;20109;-86
2022/08/26 15:34:09;;;;;;;8.88;6.22;;;27.60;95.70;;;;;;10513346;28;20048;-91
2022/08/26 15:39:17;;;;;;;12.27;6.88;;;27.50;96.50;;;;;;10481731;28;20132;-88
2022/08/26 15:44:19;;;;;;;14.57;6.53;;;27.60;96.50;;;;;;10491656;28;20075;-85
2022/08/26 15:49:22;;;;;;;16.85;7.35;;;27.60;96.80;;;;;;10495811;28;20039;-86
2022/08/26 15:54:24;;;;;;;10.90;6.18;;;27.50;96.70;;;;;;10528058;28;20105;-86
2022/08/26 15:59:26;;;;;;;7.78;6.22;;;27.60;96.60;;;;;;10487588;28;20048;-84
2022/08/26 16:04:30;;;;;;;11.07;7.07;;;27.60;96.70;;;;;;10433012;28;20055;-90
2022/08/26 16:09:49;;;;;;;11.55;6.60;;;27.60;96.80;;;;;;10217475;28;20110;-90
2022/08/26 16:14:56;;;;;;;10.10;7.25;;;27.60;96.70;;;;;;10233048;28;20058;-90
2022/08/26 16:20:01;;;;;;;12.68;7.15;;;27.70;96.90;;;;;;10271428;28;20136;-89
2022/08/26 16:25:03;;;;;;;12.48;7.85;;;27.80;96.80;;;;;;10380916;28;20076;-89
2022/08/26 16:30:06;;;;;;;14.05;8.38;;;27.80;96.90;;;;;;10402583;28;20065;-89
2022/08/26 16:35:08;;;;;;;15.88;9.85;;;27.80;96.80;;;;;;10423379;28;20049;-88
2022/08/26 16:40:10;;;;;;;15.48;9.27;;;27.90;96.90;;;;;;10424689;28;20051;-89
2022/08/26 16:45:13;;;;;;;15.43;9.70;;;28.10;96.80;;;;;;10406201;28;20081;-88
2022/08/26 16:50:17;;;;;;;20.42;12.18;;;28.20;96.90;;;;;;10393053;28;20036;-88
2022/08/26 16:55:20;;;;;;;20.55;12.57;;;28.20;96.80;;;;;;10397665;28;20061;-89
2022/08/26 17:00:26;;;;;;;24.63;13.05;;;28.20;96.80;;;;;;10414331;28;20128;-88
2022/08/26 17:05:29;;;;;;;21.25;14.25;;;28.00;97.00;;;;;;10399805;28;20036;-88
2022/08/26 17:10:31;;;;;;;20.00;13.50;;;27.80;97.40;;;;;;10428120;28;20457;-88
2022/08/26 17:15:33;;;;;;;25.27;15.25;;;27.60;97.60;;;;;;10456529;28;20099;-88
2022/08/26 17:20:36;;;;;;;24.63;14.43;;;27.40;97.70;;;;;;10458272;28;20461;-88
2022/08/26 17:25:37;;;;;;;19.60;13.32;;;27.30;97.90;;;;;;10447887;28;20214;-87
2022/08/26 17:30:40;;;;;;;22.73;13.32;;;27.10;98.00;;;;;;10460500;28;20127;-87
2022/08/26 17:35:42;;;;;;;21.88;13.90;;;26.90;98.30;;;;;;10435991;28;20052;-88
2022/08/26 17:40:44;;;;;;;21.60;12.68;;;26.60;98.60;;;;;;10443677;28;20135;-87
2022/08/26 17:45:46;;;;;;;19.30;11.85;;;26.40;98.70;;;;;;10445699;28;20037;-88
2022/08/26 17:50:48;;;;;;;21.60;11.75;;;26.00;99.20;;;;;;10437330;28;20060;-87
2022/08/26 17:56:01;;;;;;;23.70;11.70;;;25.70;99.50;;;;;;10330366;28;20076;-93
2022/08/26 18:01:27;;;;;;;16.58;10.88;;;25.60;99.60;;;;;;9954064;28;20045;-93
2022/08/26 18:06:44;;;;;;;19.27;10.80;;;25.30;99.90;;;;;;10143332;28;20025;-94
2022/08/26 18:11:51;;;;;;;14.63;9.43;;;25.20;99.90;;;;;;10244305;28;20038;-94
2022/08/26 18:17:00;;;;;;;14.25;8.85;;;25.20;99.90;;;;;;10037597;28;20127;-93
2022/08/26 18:22:28;;;;;;;11.88;8.38;;;25.10;99.90;;;;;;10134171;28;20156;-94
2022/08/26 18:28:42;;;;;;;14.15;7.82;;;24.90;99.90;;;;;;10026511;28;20062;-94
2022/08/26 18:34:40;;;;;;;15.93;8.57;;;24.80;99.90;;;;;;10124105;28;20042;-95
2022/08/26 18:40:29;;;;;;;13.93;8.27;;;24.80;99.90;;;;;;10166984;28;20064;-94
2022/08/26 18:46:06;;;;;;;9.48;6.80;;;24.80;99.90;;;;;;10107513;28;20065;-93
2022/08/26 18:51:30;;;;;;;12.80;8.90;;;24.60;99.90;;;;;;10068052;28;20049;-93
2022/08/26 18:56:51;;;;;;;14.35;9.77;;;24.70;99.90;;;;;;10324764;28;20045;-89
2022/08/26 19:01:53;;;;;;;16.13;9.05;;;24.50;99.90;;;;;;10412879;28;20064;-88
2022/08/26 19:06:55;;;;;;;12.65;9.00;;;24.40;99.90;;;;;;10401557;28;20067;-88
2022/08/26 19:11:57;;;;;;;16.83;9.38;;;24.20;99.90;;;;;;10482539;28;20049;-88
2022/08/26 19:17:00;;;;;;;11.60;8.68;;;24.30;99.90;;;;;;10506114;28;20064;-88
2022/08/26 19:22:02;;;;;;;12.30;8.32;;;24.10;99.90;;;;;;10491047;28;20054;-89
2022/08/26 19:27:04;;;;;;;14.20;7.90;;;24.00;99.90;;;;;;10482921;28;20488;-88
2022/08/26 19:32:07;;;;;;;11.82;8.18;;;24.00;99.90;;;;;;10480813;28;20040;-88
2022/08/26 19:37:09;;;;;;;11.63;7.07;;;23.90;99.90;;;;;;10494138;28;20055;-88
2022/08/26 19:42:11;;;;;;;14.82;7.60;;;23.90;99.90;;;;;;10483659;28;20054;-89
2022/08/26 19:47:13;;;;;;;13.50;7.38;;;23.90;99.90;;;;;;10499367;28;20053;-89
2022/08/26 19:52:17;;;;;;;12.50;7.05;;;23.90;99.90;;;;;;10493698;28;20367;-89
2022/08/26 19:57:19;;;;;;;12.55;7.35;;;23.90;99.90;;;;;;10453927;28;20506;-89
2022/08/26 20:02:22;;;;;;;15.63;6.95;;;23.90;99.90;;;;;;10493399;28;20078;-88
2022/08/26 20:07:28;;;;;;;13.43;7.22;;;23.80;99.90;;;;;;10465931;28;20045;-88
2022/08/26 20:12:32;;;;;;;12.40;7.28;;;23.80;99.90;;;;;;10480533;28;20052;-88
2022/08/26 20:17:34;;;;;;;7.80;6.45;;;23.80;99.90;;;;;;10492150;28;20139;-87
2022/08/26 20:22:37;;;;;;;12.35;6.28;;;23.80;99.90;;;;;;10497941;28;20470;-87
2022/08/26 20:27:39;;;;;;;10.05;6.70;;;23.80;99.90;;;;;;10491693;28;20047;-87
2022/08/26 20:32:42;;;;;;;12.68;7.40;;;23.70;99.90;;;;;;10447385;28;20885;-88
2022/08/26 20:37:44;;;;;;;10.90;6.80;;;23.70;99.90;;;;;;10444534;28;20044;-88
2022/08/26 20:42:47;;;;;;;11.93;7.65;;;23.80;99.90;;;;;;10444277;28;20143;-87
2022/08/26 20:47:49;;;;;;;11.77;7.43;;;23.70;99.90;;;;;;10462042;28;20063;-87
2022/08/26 20:52:52;;;;;;;10.70;7.60;;;23.70;99.90;;;;;;10482390;28;20052;-87
2022/08/26 20:57:54;;;;;;;17.80;7.38;;;23.50;99.90;;;;;;10515895;28;20040;-86
2022/08/26 21:03:04;;;;;;;11.75;6.45;;;23.50;99.90;;;;;;10473746;28;20097;-87
2022/08/26 21:08:06;;;;;;;14.02;8.00;;;23.50;99.90;;;;;;10456081;28;20091;-86
2022/08/26 21:13:14;;;;;;;8.48;6.70;;;23.40;99.90;;;;;;10473202;28;20055;-93
2022/08/26 21:18:16;;;;;;;13.02;6.68;;;23.40;99.90;;;;;;10375147;28;20133;-85
2022/08/26 21:23:18;;;;;;;12.00;6.72;;;23.30;99.90;;;;;;10426935;28;20044;-84
2022/08/26 21:28:22;;;;;;;10.68;6.93;;;23.30;99.90;;;;;;10491488;28;20060;-85
2022/08/26 21:33:24;;;;;;;8.00;6.05;;;23.20;99.90;;;;;;10442115;28;20056;-86
2022/08/26 21:38:29;;;;;;;7.78;5.82;;;23.20;99.90;;;;;;10475603;28;20052;-86
2022/08/26 21:43:32;;;;;;;11.05;7.07;;;23.20;99.90;;;;;;10487767;28;20052;-86
2022/08/26 21:48:41;;;;;;;13.65;5.70;;;23.00;99.90;;;;;;10372500;28;20144;-88
2022/08/26 21:53:53;;;;;;;13.27;5.55;;;23.00;99.90;;;;;;10400054;28;20125;-87
2022/08/26 21:58:58;;;;;;;10.60;5.90;;;22.90;99.90;;;;;;10442513;28;20045;-86
2022/08/26 22:04:05;;;;;;;8.88;5.30;;;22.80;99.90;;;;;;10439750;28;20550;-86
2022/08/26 22:09:07;;;;;;;9.95;5.90;;;22.70;99.90;;;;;;10467288;28;20094;-86
2022/08/26 22:14:10;;;;;;;11.10;5.78;;;22.70;99.90;;;;;;10501619;28;20040;-86
2022/08/26 22:19:12;;;;;;;10.15;5.90;;;22.70;99.90;;;;;;10463803;28;20051;-85
2022/08/26 22:24:20;;;;;;;7.20;5.15;;;22.60;99.90;;;;;;10445473;28;20056;-85
2022/08/26 22:29:24;;;;;;;11.77;5.75;;;22.50;99.90;;;;;;10375001;28;20079;-87
2022/08/26 22:34:27;;;;;;;12.25;6.03;;;22.40;99.90;;;;;;10473087;28;20149;-85
2022/08/26 22:39:33;;;;;;;9.63;5.28;;;22.40;99.90;;;;;;10405145;28;20072;-87
2022/08/26 22:44:36;;;;;;;10.85;5.32;;;22.20;99.90;;;;;;10385673;28;20518;-87
2022/08/26 22:49:38;;;;;;;8.48;5.07;;;22.20;99.90;;;;;;10496631;28;20059;-87
2022/08/26 22:54:40;;;;;;;7.03;4.70;;;22.10;99.90;;;;;;10460101;28;20468;-87
2022/08/26 22:59:42;;;;;;;9.68;5.55;;;22.10;99.90;;;;;;10473639;28;20082;-87
2022/08/26 23:04:43;;;;;;;9.93;5.45;;;22.20;99.90;;;;;;10463049;28;20082;-87
2022/08/26 23:09:45;;;;;;;7.40;5.28;;;22.10;99.90;;;;;;10470503;28;20071;-87
2022/08/26 23:14:47;;;;;;;8.10;5.20;;;22.20;99.90;;;;;;10507242;28;20056;-87
2022/08/26 23:19:49;;;;;;;12.90;5.07;;;22.00;99.90;;;;;;10505056;28;20052;-86
2022/08/26 23:24:51;;;;;;;7.85;4.93;;;22.00;99.90;;;;;;10506487;28;22506;-85
2022/08/26 23:29:55;;;;;;;8.13;5.00;;;22.00;99.90;;;;;;10482591;28;20044;-85
2022/08/26 23:34:58;;;;;;;9.45;4.78;;;22.00;99.90;;;;;;10480754;28;20048;-86
2022/08/26 23:40:18;;;;;;;8.70;5.35;;;22.00;99.90;;;;;;10463732;28;20126;-86
2022/08/26 23:45:23;;;;;;;8.98;4.75;;;21.90;99.90;;;;;;10482619;28;20043;-87
2022/08/26 23:55:55;;;;;;;9.73;5.10;;;22.00;99.90;;;;;;10280094;28;20080;-88
